Airfield :
LOGIN :

Register | Disclaimer

   EN    FR    IT 

 










Legend :    VFR   Marginal VFR   IFR   Intensive IFR   Very Intensive IFR
Visi :
Ceiling :
>= 8 km
>= 3000ft
5 to 8 km
1000 to 3000 ft
1500m to 5 km
500 to 1000 ft
800 to 1500m
200 to 500 ft
< 800m
< 200 ft
Symbols :   Thunderstorms  Fog  Heavy snow  Heavy precipitations  Wind > 20 kt
SIGMETs :     Misc.  Thunderstorms  Icing  Turbulence  Mountain Waves  Volcanic Ashes







- Airport Elevation : 39 ft
- IATA code : TRS


LIPQ - Friuli Venezia Giulia Apt. Trieste

CURRENT METAR :
  • 160820Z VRB02KT 9999 SCT035 BKN060 06/04 Q1006

EXPIRED METARs :
  • 160750Z 10003KT 060V130 9999 SCT035 BKN060 06/04 Q1005
  • 160720Z 35003KT 330V040 9999 FEW030 BKN060 05/04 Q1005
  • 160650Z 33003KT 9999 SCT020 BKN060 05/04 Q1004
  • 160620Z 35004KT 310V070 9999 -RA BKN020 BKN050 05/04 Q1004
  • 160550Z 35003KT 9999 -RA BKN020 BKN040 05/04 Q1003

TAF TAF LIPQ
Valid from the 16 at 06:00 until the 17 at 06:00 UTC


160500Z 1606/1706 01012KT 9999 BKN030
TEMPO 1606/1608 4000 SHRA
No reported NOTAMs for that airfield.
2 SIGMETs reported for the Milano FIR (LIMM) :
 
Embedded thunderstorms
LIMM SIGMET 4 VALID 160840/161040 LIIP
LIMM MILANO FIR EMBD TS OBS WI N4337 E00800 - N4424 E00933 - N4407 E01037 - N4342 E01120 - N4332 E01008 - N4306 E00940 - N4337 E00800 TOP FL260 STNR NC=
Embedded thunderstorms
LIMM SIGMET 3 VALID 160640/160840 LIIP
LIMM MILANO FIR EMBD TS OBS WI N4345 E01111 - N4334 E01018 - N4413 E00927 - N4438 E01026 - N4338 E01240 - N4345 E01111 TOP FL210 STNR NC=



MET'MAP, your aeronautical weather chart ! - Copyright ORBIFLY December 2007 - Disclaimer

ORBIFLY MET'MAP TEAM :

Programming & Development : Alexandra Zaïnal
Concept & Development : Baudouin d'Aumeries
Co-Development & Prog : Marc-Olivier Méhu
Technical & hardware support : Manuel Goepfert

Contact : metmap@orbifly.com




SOURCES & CREDITS :

   NOAA